createdAt,value
2022-11-29T00:00:17.815Z,25.41
2022-11-29T00:00:47.852Z,25.41
2022-11-29T00:01:17.893Z,25.41
2022-11-29T00:01:47.947Z,25.43
2022-11-29T00:02:18.051Z,25.38
2022-11-29T00:02:48.121Z,25.40
2022-11-29T00:03:18.186Z,25.41
2022-11-29T00:03:48.127Z,25.41
2022-11-29T00:04:18.160Z,25.43
2022-11-29T00:04:48.189Z,25.43
2022-11-29T00:05:18.221Z,25.40
2022-11-29T00:05:48.258Z,25.41
2022-11-29T00:06:18.335Z,25.43
2022-11-29T00:06:48.343Z,25.40
2022-11-29T00:07:18.412Z,25.41
2022-11-29T00:07:48.488Z,25.40
2022-11-29T00:08:18.528Z,25.40
2022-11-29T00:08:48.558Z,25.41
2022-11-29T00:09:18.584Z,25.43
2022-11-29T00:09:48.619Z,25.40
2022-11-29T00:10:18.648Z,25.40
2022-11-29T00:10:48.675Z,25.41
2022-11-29T00:11:18.714Z,25.40
2022-11-29T00:11:48.749Z,25.38
2022-11-29T00:12:18.777Z,25.40
2022-11-29T00:12:48.808Z,25.40
2022-11-29T00:13:18.846Z,25.40
2022-11-29T00:13:48.871Z,25.41
2022-11-29T00:14:18.912Z,25.41
2022-11-29T00:14:48.938Z,25.41
2022-11-29T00:15:18.968Z,25.41
2022-11-29T00:15:49.003Z,25.41
2022-11-29T00:16:19.068Z,25.43
2022-11-29T00:16:49.124Z,25.40
2022-11-29T00:17:19.150Z,25.41
2022-11-29T00:17:49.190Z,25.41
2022-11-29T00:18:19.214Z,25.40
2022-11-29T00:18:49.249Z,25.40
2022-11-29T00:19:19.281Z,25.41
2022-11-29T00:19:49.313Z,25.38
2022-11-29T00:20:19.348Z,25.40
2022-11-29T00:20:49.383Z,25.40
2022-11-29T00:21:19.414Z,25.41
2022-11-29T00:21:49.476Z,25.40
2022-11-29T00:22:19.482Z,25.40
2022-11-29T00:22:49.519Z,25.40
2022-11-29T00:23:19.550Z,25.38
2022-11-29T00:23:49.579Z,25.40
2022-11-29T00:24:19.609Z,25.40
2022-11-29T00:24:49.670Z,25.37
2022-11-29T00:25:19.692Z,25.41
2022-11-29T00:25:49.762Z,25.38
2022-11-29T00:26:19.793Z,25.41
2022-11-29T00:26:49.826Z,25.38
2022-11-29T00:27:19.856Z,25.40
2022-11-29T00:27:49.889Z,25.38
2022-11-29T00:28:19.921Z,25.40
2022-11-29T00:28:49.954Z,25.43
2022-11-29T00:29:19.987Z,25.40
2022-11-29T00:29:50.015Z,25.37
2022-11-29T00:30:20.052Z,25.38
2022-11-29T00:30:50.131Z,25.38
2022-11-29T00:31:20.141Z,25.38
2022-11-29T00:31:50.176Z,25.37
2022-11-29T00:32:20.214Z,25.38
2022-11-29T00:32:50.254Z,25.36
2022-11-29T00:33:20.280Z,25.38
2022-11-29T00:33:50.333Z,25.40
2022-11-29T00:34:20.353Z,25.38
2022-11-29T00:34:50.388Z,25.37
2022-11-29T00:35:20.422Z,25.38
2022-11-29T00:35:50.517Z,25.37
2022-11-29T00:36:20.551Z,25.36
2022-11-29T00:36:50.582Z,25.38
2022-11-29T00:37:20.639Z,25.40
2022-11-29T00:37:50.645Z,25.38
2022-11-29T00:38:20.682Z,25.37
2022-11-29T00:38:50.718Z,25.38
2022-11-29T00:39:20.753Z,25.38
2022-11-29T00:39:50.788Z,25.40
2022-11-29T00:40:20.819Z,25.38
2022-11-29T00:40:50.867Z,25.38
2022-11-29T00:41:20.899Z,25.37
2022-11-29T00:41:50.931Z,25.40
2022-11-29T00:42:20.968Z,25.37
2022-11-29T00:42:51.000Z,25.37
2022-11-29T00:43:21.029Z,25.38
2022-11-29T00:43:51.069Z,25.38
2022-11-29T00:44:21.116Z,25.37
2022-11-29T00:44:51.133Z,25.38
2022-11-29T00:45:21.161Z,25.40
2022-11-29T00:45:51.348Z,25.40
2022-11-29T00:46:21.333Z,25.37
2022-11-29T00:46:51.352Z,25.37
2022-11-29T00:47:21.472Z,25.40
2022-11-29T00:47:51.470Z,25.36
2022-11-29T00:48:21.592Z,25.38
2022-11-29T00:48:51.583Z,25.38
2022-11-29T00:49:21.701Z,25.37
2022-11-29T00:49:51.687Z,25.38
2022-11-29T00:50:21.810Z,25.37
2022-11-29T00:50:51.820Z,25.37
2022-11-29T00:51:21.817Z,25.38
2022-11-29T00:51:51.810Z,25.34
2022-11-29T00:52:21.960Z,25.36
2022-11-29T00:52:52.047Z,25.37
2022-11-29T00:53:22.168Z,25.37
2022-11-29T00:53:52.166Z,25.38
2022-11-29T00:54:22.286Z,25.36
2022-11-29T00:54:52.281Z,25.38
2022-11-29T00:55:22.277Z,25.36
2022-11-29T00:55:52.288Z,25.37
2022-11-29T00:56:22.282Z,25.38
2022-11-29T00:56:52.283Z,25.37
2022-11-29T00:57:22.316Z,25.34
2022-11-29T00:57:52.350Z,25.36
2022-11-29T00:58:22.376Z,25.37
2022-11-29T00:58:52.417Z,25.38
2022-11-29T00:59:22.447Z,25.34
2022-11-29T00:59:52.484Z,25.37
2022-11-29T01:00:22.512Z,25.37
2022-11-29T01:00:52.610Z,25.38
2022-11-29T01:01:22.718Z,25.37
2022-11-29T01:01:52.753Z,25.38
2022-11-29T01:02:22.849Z,25.37
2022-11-29T01:02:52.891Z,25.36
2022-11-29T01:03:22.931Z,25.36
2022-11-29T01:03:52.963Z,25.37
2022-11-29T01:04:22.995Z,25.36
2022-11-29T01:04:53.041Z,25.37
2022-11-29T01:05:23.062Z,25.36
2022-11-29T01:05:53.101Z,25.37
2022-11-29T01:06:23.139Z,25.37
2022-11-29T01:06:53.170Z,25.36
2022-11-29T01:07:23.255Z,25.37
2022-11-29T01:07:53.453Z,25.37
2022-11-29T01:08:23.362Z,25.37
2022-11-29T01:08:53.396Z,25.38
2022-11-29T01:09:23.429Z,25.37
2022-11-29T01:09:53.471Z,25.37
2022-11-29T01:10:23.498Z,25.36
2022-11-29T01:10:53.546Z,25.36
2022-11-29T01:11:23.581Z,25.36
2022-11-29T01:11:53.611Z,25.38
2022-11-29T01:12:23.644Z,25.34
2022-11-29T01:12:53.675Z,25.38
2022-11-29T01:13:23.705Z,25.36
2022-11-29T01:13:53.789Z,25.36
2022-11-29T01:14:23.824Z,25.34
2022-11-29T01:14:53.852Z,25.36
2022-11-29T01:15:23.879Z,25.37
2022-11-29T01:15:53.946Z,25.36
2022-11-29T01:16:24.051Z,25.34
2022-11-29T01:16:54.137Z,25.36
2022-11-29T01:17:24.156Z,25.37
2022-11-29T01:17:54.182Z,25.36
2022-11-29T01:18:24.212Z,25.36
2022-11-29T01:18:54.241Z,25.34
2022-11-29T01:19:24.274Z,25.36
2022-11-29T01:19:54.318Z,25.33
2022-11-29T01:20:24.342Z,25.38
2022-11-29T01:20:54.399Z,25.36
2022-11-29T01:21:24.459Z,25.38
2022-11-29T01:21:54.482Z,25.37
2022-11-29T01:22:24.514Z,25.37
2022-11-29T01:22:54.547Z,25.36
2022-11-29T01:23:24.606Z,25.34
2022-11-29T01:23:54.615Z,25.34
2022-11-29T01:24:24.660Z,25.36
2022-11-29T01:24:54.689Z,25.34
2022-11-29T01:25:24.719Z,25.37
2022-11-29T01:25:54.757Z,25.34
2022-11-29T01:26:24.831Z,25.34
2022-11-29T01:26:54.867Z,25.32
2022-11-29T01:27:24.899Z,25.34
2022-11-29T01:27:54.924Z,25.36
2022-11-29T01:28:24.961Z,25.36
2022-11-29T01:28:54.996Z,25.33
2022-11-29T01:29:25.022Z,25.33
2022-11-29T01:29:55.056Z,25.33
2022-11-29T01:30:25.134Z,25.33
2022-11-29T01:30:55.191Z,25.32
2022-11-29T01:31:25.247Z,25.34
2022-11-29T01:31:55.259Z,25.34
2022-11-29T01:32:25.288Z,25.36
2022-11-29T01:32:55.319Z,25.34
2022-11-29T01:33:25.353Z,25.34
2022-11-29T01:33:55.386Z,25.34
2022-11-29T01:34:25.416Z,25.34
2022-11-29T01:34:55.448Z,25.34
2022-11-29T01:35:25.474Z,25.34
2022-11-29T01:35:55.505Z,25.34
2022-11-29T01:36:25.547Z,25.33
2022-11-29T01:36:55.573Z,25.33
2022-11-29T01:37:25.611Z,25.36
2022-11-29T01:37:55.647Z,25.33
2022-11-29T01:38:25.679Z,25.32
2022-11-29T01:38:55.740Z,25.32
2022-11-29T01:39:25.746Z,25.33
2022-11-29T01:39:55.771Z,25.33
2022-11-29T01:40:25.807Z,25.33
2022-11-29T01:40:55.861Z,25.33
2022-11-29T01:41:25.885Z,25.36
2022-11-29T01:41:55.916Z,25.33
2022-11-29T01:42:25.949Z,25.33
2022-11-29T01:42:55.972Z,25.34
2022-11-29T01:43:26.012Z,25.34
2022-11-29T01:43:56.038Z,25.33
2022-11-29T01:44:26.066Z,25.33
2022-11-29T01:44:56.099Z,25.33
2022-11-29T01:45:26.138Z,25.33
2022-11-29T01:45:56.205Z,25.36
2022-11-29T01:46:26.261Z,25.33
2022-11-29T01:46:56.264Z,25.34
2022-11-29T01:47:26.381Z,25.33
2022-11-29T01:47:56.494Z,25.34
2022-11-29T01:48:26.496Z,25.34
2022-11-29T01:48:56.608Z,25.32
2022-11-29T01:49:26.607Z,25.33
2022-11-29T01:49:56.600Z,25.32
2022-11-29T01:50:26.716Z,25.32
2022-11-29T01:50:56.855Z,25.34
2022-11-29T01:51:26.867Z,25.32
2022-11-29T01:51:56.857Z,25.32
2022-11-29T01:52:26.867Z,25.34
2022-11-29T01:52:56.860Z,25.33
2022-11-29T01:53:26.987Z,25.32
2022-11-29T01:53:57.088Z,25.30
2022-11-29T01:54:27.230Z,25.30
2022-11-29T01:54:57.205Z,25.33
2022-11-29T01:55:27.321Z,25.33
2022-11-29T01:55:57.464Z,25.33
2022-11-29T01:56:27.455Z,25.33
2022-11-29T01:56:57.462Z,25.33
2022-11-29T01:57:27.497Z,25.32
2022-11-29T01:57:57.528Z,25.33
2022-11-29T01:58:27.560Z,25.33
2022-11-29T01:58:57.594Z,25.32
2022-11-29T01:59:27.622Z,25.32
2022-11-29T01:59:57.655Z,25.34
2022-11-29T02:00:27.687Z,25.30
2022-11-29T02:00:57.742Z,25.33
2022-11-29T02:01:27.831Z,25.33
2022-11-29T02:01:57.864Z,25.33
2022-11-29T02:02:27.981Z,25.33
2022-11-29T02:02:57.917Z,25.32
2022-11-29T02:03:27.931Z,25.32
2022-11-29T02:03:57.958Z,25.30
2022-11-29T02:04:27.994Z,25.30
2022-11-29T02:04:58.022Z,25.29
2022-11-29T02:05:28.059Z,25.32
2022-11-29T02:05:58.090Z,25.32
2022-11-29T02:06:28.195Z,25.32
2022-11-29T02:06:58.206Z,25.30
2022-11-29T02:07:28.298Z,25.32
2022-11-29T02:07:58.357Z,25.30
2022-11-29T02:08:28.403Z,25.30
2022-11-29T02:08:58.432Z,25.32
2022-11-29T02:09:28.457Z,25.30
2022-11-29T02:09:58.514Z,25.30
2022-11-29T02:10:28.524Z,25.30
2022-11-29T02:10:58.551Z,25.32
2022-11-29T02:11:28.599Z,25.30
2022-11-29T02:11:58.634Z,25.30
2022-11-29T02:12:28.673Z,25.30
2022-11-29T02:12:58.707Z,25.30
2022-11-29T02:13:28.748Z,25.30
2022-11-29T02:13:58.790Z,25.29
2022-11-29T02:14:28.821Z,25.30
2022-11-29T02:14:58.846Z,25.27
2022-11-29T02:15:28.975Z,25.29
2022-11-29T02:15:58.923Z,25.30
2022-11-29T02:16:28.971Z,25.29
2022-11-29T02:16:59.011Z,25.29
2022-11-29T02:17:29.044Z,25.32
2022-11-29T02:17:59.072Z,25.29
2022-11-29T02:18:29.151Z,25.29
2022-11-29T02:18:59.179Z,25.32
2022-11-29T02:19:29.204Z,25.29
2022-11-29T02:19:59.241Z,25.30
2022-11-29T02:20:29.273Z,25.29
2022-11-29T02:20:59.300Z,25.29
2022-11-29T02:21:29.330Z,25.29
2022-11-29T02:21:59.377Z,25.32
2022-11-29T02:22:29.407Z,25.29
2022-11-29T02:22:59.444Z,25.30
2022-11-29T02:23:29.468Z,25.30
2022-11-29T02:23:59.499Z,25.27
2022-11-29T02:24:29.535Z,25.30
2022-11-29T02:24:59.563Z,25.30
2022-11-29T02:25:29.626Z,25.30
2022-11-29T02:25:59.636Z,25.32
2022-11-29T02:26:29.666Z,25.32
2022-11-29T02:26:59.698Z,25.32
2022-11-29T02:27:29.731Z,25.32
2022-11-29T02:27:59.758Z,25.29
2022-11-29T02:28:29.794Z,25.29
2022-11-29T02:28:59.824Z,25.32
2022-11-29T02:29:29.852Z,25.29
2022-11-29T02:29:59.902Z,25.30
2022-11-29T02:30:29.969Z,25.30
2022-11-29T02:31:00.073Z,25.29
2022-11-29T02:31:30.060Z,25.29
2022-11-29T02:32:00.154Z,25.30
2022-11-29T02:32:30.182Z,25.30
2022-11-29T02:33:00.235Z,25.30
2022-11-29T02:33:30.288Z,25.30
2022-11-29T02:34:00.351Z,25.32
2022-11-29T02:34:30.414Z,25.30
2022-11-29T02:35:00.450Z,25.29
2022-11-29T02:35:30.489Z,25.29
2022-11-29T02:36:00.525Z,25.27
2022-11-29T02:36:30.559Z,25.29
2022-11-29T02:37:00.699Z,25.30
2022-11-29T02:37:30.755Z,25.29
2022-11-29T02:38:00.794Z,25.27
2022-11-29T02:38:30.836Z,25.27
2022-11-29T02:39:00.899Z,25.27
2022-11-29T02:39:30.934Z,25.29
2022-11-29T02:40:00.992Z,25.27
2022-11-29T02:40:31.077Z,25.29
2022-11-29T02:41:01.131Z,25.27
2022-11-29T02:41:31.161Z,25.29
2022-11-29T02:42:01.181Z,25.29
2022-11-29T02:42:31.209Z,25.29
2022-11-29T02:43:01.240Z,25.29
2022-11-29T02:43:31.277Z,25.29
2022-11-29T02:44:01.313Z,25.27
2022-11-29T02:44:31.344Z,25.27
2022-11-29T02:45:01.372Z,25.26
2022-11-29T02:45:31.404Z,25.27
2022-11-29T02:46:01.496Z,25.27
2022-11-29T02:46:31.604Z,25.29
2022-11-29T02:47:01.595Z,25.26
2022-11-29T02:47:31.712Z,25.29
2022-11-29T02:48:01.705Z,25.26
2022-11-29T02:48:31.707Z,25.30
2022-11-29T02:49:01.694Z,25.29
2022-11-29T02:49:31.819Z,25.27
2022-11-29T02:50:01.933Z,25.27
2022-11-29T02:50:31.931Z,25.26
2022-11-29T02:51:01.937Z,25.26
2022-11-29T02:51:32.064Z,25.26
2022-11-29T02:52:02.065Z,25.26
2022-11-29T02:52:32.062Z,25.26
2022-11-29T02:53:02.193Z,25.27
2022-11-29T02:53:32.175Z,25.29
2022-11-29T02:54:02.171Z,25.27
2022-11-29T02:54:32.287Z,25.26
2022-11-29T02:55:02.282Z,25.26
2022-11-29T02:55:32.277Z,25.27
2022-11-29T02:56:02.428Z,25.24
2022-11-29T02:56:32.387Z,25.27
2022-11-29T02:57:02.430Z,25.27
2022-11-29T02:57:32.454Z,25.26
2022-11-29T02:58:02.492Z,25.24
2022-11-29T02:58:32.527Z,25.27
2022-11-29T02:59:02.556Z,25.26
2022-11-29T02:59:32.584Z,25.24
2022-11-29T03:00:02.635Z,25.26
2022-11-29T03:00:32.653Z,25.24
2022-11-29T03:01:02.784Z,25.26
2022-11-29T03:01:32.787Z,25.26
2022-11-29T03:02:02.828Z,25.26
2022-11-29T03:02:32.909Z,25.24
2022-11-29T03:03:02.918Z,25.26
2022-11-29T03:03:32.945Z,25.26
2022-11-29T03:04:02.976Z,25.26
2022-11-29T03:04:33.008Z,25.24
2022-11-29T03:05:03.034Z,25.24
2022-11-29T03:05:33.065Z,25.24
2022-11-29T03:06:03.096Z,25.23
2022-11-29T03:06:33.123Z,25.24
2022-11-29T03:07:03.211Z,25.23
2022-11-29T03:07:33.259Z,25.26
2022-11-29T03:08:03.272Z,25.24
2022-11-29T03:08:33.309Z,25.24
2022-11-29T03:09:03.339Z,25.24
2022-11-29T03:09:33.366Z,25.26
2022-11-29T03:10:03.406Z,25.23
2022-11-29T03:10:33.433Z,25.27
2022-11-29T03:11:03.457Z,25.24
2022-11-29T03:11:33.540Z,25.24
2022-11-29T03:12:03.545Z,25.23
2022-11-29T03:12:33.572Z,25.26
2022-11-29T03:13:03.602Z,25.24
2022-11-29T03:13:33.634Z,25.26
2022-11-29T03:14:03.661Z,25.27
2022-11-29T03:14:33.693Z,25.24
2022-11-29T03:15:03.725Z,25.23
2022-11-29T03:15:33.830Z,25.24
2022-11-29T03:16:03.924Z,25.26
2022-11-29T03:16:37.191Z,25.26
2022-11-29T03:17:04.011Z,25.24
2022-11-29T03:17:34.044Z,25.23
2022-11-29T03:18:04.072Z,25.23
2022-11-29T03:18:34.098Z,25.23
2022-11-29T03:19:04.131Z,25.26
2022-11-29T03:19:34.161Z,25.23
2022-11-29T03:20:04.202Z,25.27
2022-11-29T03:20:34.224Z,25.24
2022-11-29T03:21:04.277Z,25.27
2022-11-29T03:21:34.314Z,25.26
2022-11-29T03:22:04.336Z,25.24
2022-11-29T03:22:34.370Z,25.23
2022-11-29T03:23:04.399Z,25.23
2022-11-29T03:23:34.433Z,25.24
2022-11-29T03:24:04.459Z,25.24
2022-11-29T03:24:34.492Z,25.23
2022-11-29T03:25:04.522Z,25.23
2022-11-29T03:25:34.551Z,25.23
2022-11-29T03:26:04.582Z,25.22
2022-11-29T03:26:34.616Z,25.24
2022-11-29T03:27:04.666Z,25.24
2022-11-29T03:27:34.676Z,25.24
2022-11-29T03:28:04.710Z,25.23
2022-11-29T03:28:34.737Z,25.24
2022-11-29T03:29:04.772Z,25.24
2022-11-29T03:29:34.803Z,25.24
2022-11-29T03:30:04.831Z,25.23
2022-11-29T03:30:34.863Z,25.23
2022-11-29T03:31:04.958Z,25.24
2022-11-29T03:31:34.970Z,25.23
2022-11-29T03:32:05.016Z,25.26
2022-11-29T03:32:35.045Z,25.23
2022-11-29T03:33:05.078Z,25.24
2022-11-29T03:33:35.114Z,25.24
2022-11-29T03:34:05.153Z,25.23
2022-11-29T03:34:35.177Z,25.23
2022-11-29T03:35:05.206Z,25.26
2022-11-29T03:35:35.242Z,25.24
2022-11-29T03:36:05.273Z,25.23
2022-11-29T03:36:35.302Z,25.23
2022-11-29T03:37:05.365Z,25.22
2022-11-29T03:37:35.391Z,25.24
2022-11-29T03:38:05.419Z,25.23
2022-11-29T03:38:35.454Z,25.26
2022-11-29T03:39:05.493Z,25.24
2022-11-29T03:39:35.524Z,25.23
2022-11-29T03:40:05.569Z,25.23
2022-11-29T03:40:35.593Z,25.24
2022-11-29T03:41:05.631Z,25.23
2022-11-29T03:41:35.659Z,25.24
2022-11-29T03:42:05.701Z,25.23
2022-11-29T03:42:35.780Z,25.22
2022-11-29T03:43:05.779Z,25.23
2022-11-29T03:43:35.811Z,25.20
2022-11-29T03:44:05.841Z,25.23
2022-11-29T03:44:35.869Z,25.20
2022-11-29T03:45:05.901Z,25.22
2022-11-29T03:45:35.927Z,25.22
2022-11-29T03:46:05.985Z,25.23
2022-11-29T03:46:36.168Z,25.22
2022-11-29T03:47:06.060Z,25.23
2022-11-29T03:47:36.219Z,25.23
2022-11-29T03:48:06.211Z,25.24
2022-11-29T03:48:36.326Z,25.22
2022-11-29T03:49:06.441Z,25.22
2022-11-29T03:49:36.437Z,25.22
2022-11-29T03:50:06.553Z,25.22
2022-11-29T03:50:36.663Z,25.24
2022-11-29T03:51:06.815Z,25.23
2022-11-29T03:51:36.824Z,25.26
2022-11-29T03:52:06.807Z,25.24
2022-11-29T03:52:36.797Z,25.27
2022-11-29T03:53:06.807Z,25.24
2022-11-29T03:53:36.851Z,25.29
2022-11-29T03:54:06.972Z,25.29
2022-11-29T03:54:37.089Z,25.32
2022-11-29T03:55:07.209Z,25.32
2022-11-29T03:55:37.205Z,25.33
2022-11-29T03:56:07.326Z,25.37
2022-11-29T03:56:37.443Z,25.36
2022-11-29T03:57:07.474Z,25.38
2022-11-29T03:57:37.504Z,25.38
2022-11-29T03:58:07.568Z,25.41
2022-11-29T03:58:37.582Z,25.41
2022-11-29T03:59:07.606Z,25.44
2022-11-29T03:59:37.634Z,25.44
2022-11-29T04:00:07.670Z,25.45
2022-11-29T04:00:37.699Z,25.48
2022-11-29T04:01:07.792Z,25.45
2022-11-29T04:01:37.954Z,25.50
2022-11-29T04:02:07.861Z,25.50
2022-11-29T04:02:37.963Z,25.53
2022-11-29T04:03:08.004Z,25.51
2022-11-29T04:03:38.029Z,25.53
2022-11-29T04:04:08.070Z,25.53
2022-11-29T04:04:38.094Z,25.56
2022-11-29T04:05:08.122Z,25.56
2022-11-29T04:05:38.153Z,25.56
2022-11-29T04:06:08.182Z,25.58
2022-11-29T04:06:38.226Z,25.58
2022-11-29T04:07:08.258Z,25.58
2022-11-29T04:07:38.368Z,25.61
2022-11-29T04:08:08.372Z,25.61
2022-11-29T04:08:38.407Z,25.62
2022-11-29T04:09:08.439Z,25.62
2022-11-29T04:09:38.467Z,25.62
2022-11-29T04:10:08.501Z,25.64
2022-11-29T04:10:38.506Z,25.64
2022-11-29T04:11:08.521Z,25.65
2022-11-29T04:11:38.572Z,25.67
2022-11-29T04:12:08.614Z,25.67
2022-11-29T04:12:38.639Z,25.70
2022-11-29T04:13:08.691Z,25.68
2022-11-29T04:13:38.752Z,25.68
2022-11-29T04:14:08.763Z,25.71
2022-11-29T04:14:38.790Z,25.70
2022-11-29T04:15:14.103Z,25.70
2022-11-29T04:15:38.929Z,25.71
2022-11-29T04:16:09.027Z,25.71
2022-11-29T04:16:39.068Z,25.71
2022-11-29T04:17:09.099Z,25.74
2022-11-29T04:17:39.132Z,25.77
2022-11-29T04:18:09.232Z,25.74
2022-11-29T04:18:39.270Z,25.77
2022-11-29T04:19:09.305Z,25.77
2022-11-29T04:19:39.334Z,25.75
2022-11-29T04:20:09.371Z,25.75
2022-11-29T04:20:42.091Z,25.75
2022-11-29T04:21:09.442Z,25.77
2022-11-29T04:21:39.485Z,25.78
2022-11-29T04:22:09.520Z,25.78
2022-11-29T04:22:39.551Z,25.78
2022-11-29T04:23:09.592Z,25.79
2022-11-29T04:23:39.627Z,25.79
2022-11-29T04:24:09.668Z,25.79
2022-11-29T04:24:39.707Z,25.79
2022-11-29T04:25:09.740Z,25.79
2022-11-29T04:25:39.766Z,25.81
2022-11-29T04:26:09.802Z,25.82
2022-11-29T04:26:39.832Z,25.81
2022-11-29T04:27:09.861Z,25.84
2022-11-29T04:27:39.886Z,25.81
2022-11-29T04:28:09.932Z,25.81
2022-11-29T04:28:39.968Z,25.81
2022-11-29T04:29:10.021Z,25.81
2022-11-29T04:29:40.038Z,25.82
2022-11-29T04:30:10.061Z,25.81
2022-11-29T04:30:40.105Z,25.82
2022-11-29T04:31:10.199Z,25.79
2022-11-29T04:31:40.158Z,25.81
2022-11-29T04:32:10.199Z,25.81
2022-11-29T04:32:40.224Z,25.81
2022-11-29T04:33:10.265Z,25.81
2022-11-29T04:33:40.294Z,25.81
2022-11-29T04:34:10.332Z,25.82
2022-11-29T04:34:40.380Z,25.82
2022-11-29T04:35:10.421Z,25.81
2022-11-29T04:35:40.458Z,25.79
2022-11-29T04:36:10.483Z,25.79
2022-11-29T04:36:40.537Z,25.82
2022-11-29T04:37:10.576Z,25.82
2022-11-29T04:37:40.602Z,25.82
2022-11-29T04:38:10.635Z,25.82
2022-11-29T04:38:40.661Z,25.81
2022-11-29T04:39:10.691Z,25.79
2022-11-29T04:39:40.721Z,25.81
2022-11-29T04:40:10.750Z,25.81
2022-11-29T04:40:40.779Z,25.81
2022-11-29T04:41:10.814Z,25.79
2022-11-29T04:41:40.853Z,25.81
2022-11-29T04:42:10.883Z,25.81
2022-11-29T04:42:40.914Z,25.81
2022-11-29T04:43:10.946Z,25.84
2022-11-29T04:43:40.979Z,25.82
2022-11-29T04:44:11.016Z,25.81
2022-11-29T04:44:41.069Z,25.79
2022-11-29T04:45:11.078Z,25.79
2022-11-29T04:45:41.108Z,25.81
2022-11-29T04:46:11.151Z,25.81
2022-11-29T04:46:41.385Z,25.79
2022-11-29T04:47:11.256Z,25.79
2022-11-29T04:47:41.376Z,25.79
2022-11-29T04:48:11.370Z,25.77
2022-11-29T04:48:41.366Z,25.79
2022-11-29T04:49:11.490Z,25.79
2022-11-29T04:49:41.478Z,25.79
2022-11-29T04:50:11.602Z,25.79
2022-11-29T04:50:41.710Z,25.81
2022-11-29T04:51:11.707Z,25.79
2022-11-29T04:51:41.704Z,25.81
2022-11-29T04:52:11.824Z,25.79
2022-11-29T04:52:41.817Z,25.81
2022-11-29T04:53:11.812Z,25.81
2022-11-29T04:53:41.935Z,25.81
2022-11-29T04:54:11.933Z,25.81
2022-11-29T04:54:42.267Z,25.82
2022-11-29T04:55:12.690Z,25.82
2022-11-29T04:55:42.027Z,25.78
2022-11-29T04:56:12.024Z,25.79
2022-11-29T04:56:42.164Z,25.81
2022-11-29T04:57:12.173Z,25.82
2022-11-29T04:57:42.219Z,25.82
2022-11-29T04:58:12.252Z,25.81
2022-11-29T04:58:42.288Z,25.81
2022-11-29T04:59:12.323Z,25.82
2022-11-29T04:59:42.357Z,25.81
2022-11-29T05:00:12.415Z,25.82
2022-11-29T05:00:42.429Z,25.84
2022-11-29T05:01:12.591Z,25.84
2022-11-29T05:01:42.569Z,25.84
2022-11-29T05:02:12.583Z,25.82
2022-11-29T05:02:42.644Z,25.85
2022-11-29T05:03:12.665Z,25.87
2022-11-29T05:03:44.172Z,25.87
2022-11-29T05:04:12.711Z,25.88
2022-11-29T05:04:42.981Z,25.89
2022-11-29T05:05:12.811Z,25.89
2022-11-29T05:05:42.842Z,25.92
2022-11-29T05:06:12.869Z,25.93
2022-11-29T05:06:42.911Z,25.95
2022-11-29T05:07:12.937Z,25.96
2022-11-29T05:07:43.036Z,25.96
2022-11-29T05:08:13.050Z,25.99
2022-11-29T05:08:43.127Z,25.99
2022-11-29T05:09:13.155Z,26.00
2022-11-29T05:09:43.185Z,26.02
2022-11-29T05:10:13.215Z,26.03
2022-11-29T05:10:43.248Z,26.03
2022-11-29T05:11:13.281Z,26.02
2022-11-29T05:11:43.316Z,26.03
2022-11-29T05:12:13.339Z,26.03
2022-11-29T05:12:43.376Z,26.05
2022-11-29T05:13:13.415Z,26.03
2022-11-29T05:13:43.479Z,26.06
2022-11-29T05:14:13.516Z,26.03
2022-11-29T05:14:43.951Z,26.06
2022-11-29T05:15:13.557Z,26.06
2022-11-29T05:15:43.700Z,26.05
2022-11-29T05:16:13.766Z,26.06
2022-11-29T05:16:43.655Z,26.06
2022-11-29T05:17:13.686Z,26.06
2022-11-29T05:17:43.714Z,26.06
2022-11-29T05:18:13.754Z,26.05
2022-11-29T05:18:43.812Z,26.05
2022-11-29T05:19:13.843Z,26.06
2022-11-29T05:19:43.876Z,26.09
2022-11-29T05:20:13.908Z,26.09
2022-11-29T05:20:43.962Z,26.07
2022-11-29T05:21:13.990Z,26.07
2022-11-29T05:21:44.029Z,26.09
2022-11-29T05:22:14.056Z,26.09
2022-11-29T05:22:44.089Z,26.10
2022-11-29T05:23:14.130Z,26.12
2022-11-29T05:23:44.158Z,26.10
2022-11-29T05:24:14.191Z,26.12
2022-11-29T05:24:44.492Z,26.12
2022-11-29T05:25:14.236Z,26.09
2022-11-29T05:25:44.270Z,26.07
2022-11-29T05:26:14.301Z,26.12
2022-11-29T05:26:44.362Z,26.12
2022-11-29T05:27:14.404Z,26.10
2022-11-29T05:27:44.449Z,26.12
2022-11-29T05:28:14.492Z,26.13
2022-11-29T05:28:44.526Z,26.15
2022-11-29T05:29:14.562Z,26.13
2022-11-29T05:29:44.609Z,26.12
2022-11-29T05:30:14.674Z,26.12
2022-11-29T05:30:44.677Z,26.13
2022-11-29T05:31:14.775Z,26.15
2022-11-29T05:31:44.785Z,26.16
2022-11-29T05:32:14.821Z,26.15
2022-11-29T05:32:44.857Z,26.16
2022-11-29T05:33:14.900Z,26.15
2022-11-29T05:33:44.935Z,26.15
2022-11-29T05:34:14.963Z,26.16
2022-11-29T05:34:44.997Z,26.16
2022-11-29T05:35:15.065Z,26.17
2022-11-29T05:35:45.098Z,26.17
2022-11-29T05:36:15.147Z,26.17
2022-11-29T05:36:45.183Z,26.20
2022-11-29T05:37:15.217Z,26.20
2022-11-29T05:37:45.272Z,26.20
2022-11-29T05:38:15.346Z,26.23
2022-11-29T05:38:45.393Z,26.22
2022-11-29T05:39:15.429Z,26.20
2022-11-29T05:39:45.466Z,26.24
2022-11-29T05:40:15.497Z,26.24
2022-11-29T05:40:45.585Z,26.22
2022-11-29T05:41:15.666Z,26.23
2022-11-29T05:41:45.746Z,26.23
2022-11-29T05:42:15.812Z,26.24
2022-11-29T05:42:45.881Z,26.24
2022-11-29T05:43:15.994Z,26.27
2022-11-29T05:43:46.096Z,26.23
2022-11-29T05:44:16.145Z,26.27
2022-11-29T05:44:46.594Z,26.26
2022-11-29T05:45:16.276Z,26.24
2022-11-29T05:45:46.313Z,26.29
2022-11-29T05:46:16.417Z,26.27
2022-11-29T05:46:46.554Z,26.29
2022-11-29T05:47:16.526Z,26.26
2022-11-29T05:47:46.644Z,26.26
2022-11-29T05:48:16.758Z,26.27
2022-11-29T05:48:46.898Z,26.30
2022-11-29T05:49:16.928Z,26.32
2022-11-29T05:49:47.050Z,26.32
2022-11-29T05:50:17.168Z,26.30
2022-11-29T05:50:47.171Z,26.29
2022-11-29T05:51:17.164Z,26.30
2022-11-29T05:51:47.158Z,26.32
2022-11-29T05:52:17.161Z,26.29
2022-11-29T05:52:47.291Z,26.32
2022-11-29T05:53:17.295Z,26.36
2022-11-29T05:53:47.286Z,26.33
2022-11-29T05:54:17.403Z,26.34
2022-11-29T05:54:47.746Z,26.36
2022-11-29T05:55:17.522Z,26.34
2022-11-29T05:55:47.521Z,26.33
2022-11-29T05:56:17.511Z,26.36
2022-11-29T05:56:47.523Z,26.34
2022-11-29T05:57:17.558Z,26.34
2022-11-29T05:57:47.594Z,26.40
2022-11-29T05:58:17.647Z,26.40
2022-11-29T05:58:47.665Z,26.37
2022-11-29T05:59:17.695Z,26.37
2022-11-29T05:59:47.732Z,26.37
2022-11-29T06:00:17.758Z,26.36
2022-11-29T06:00:47.789Z,26.36
2022-11-29T06:01:17.826Z,26.37
2022-11-29T06:01:47.915Z,26.39
2022-11-29T06:02:18.052Z,26.40
2022-11-29T06:02:47.997Z,26.40
2022-11-29T06:03:18.080Z,26.39
2022-11-29T06:03:48.117Z,26.37
2022-11-29T06:04:18.155Z,26.39
2022-11-29T06:04:48.187Z,26.37
2022-11-29T06:05:18.221Z,26.33
2022-11-29T06:05:48.265Z,26.34
2022-11-29T06:06:18.289Z,26.32
2022-11-29T06:06:48.321Z,26.33
2022-11-29T06:07:18.405Z,26.32
2022-11-29T06:07:48.527Z,26.33
2022-11-29T06:08:18.460Z,26.32
2022-11-29T06:08:48.480Z,26.32
2022-11-29T06:09:18.508Z,26.17
2022-11-29T06:09:48.546Z,26.26
2022-11-29T06:10:18.579Z,26.26
2022-11-29T06:10:48.607Z,26.24
2022-11-29T06:11:18.644Z,26.24
2022-11-29T06:11:48.676Z,26.26
2022-11-29T06:12:21.279Z,26.26
2022-11-29T06:12:48.736Z,26.24
2022-11-29T06:13:18.771Z,26.26
2022-11-29T06:13:48.797Z,26.27
2022-11-29T06:14:18.830Z,26.27
2022-11-29T06:14:48.869Z,26.24
2022-11-29T06:15:18.897Z,26.23
2022-11-29T06:15:48.967Z,26.23
2022-11-29T06:16:19.235Z,26.23
2022-11-29T06:16:49.027Z,26.20
2022-11-29T06:17:19.061Z,26.23
2022-11-29T06:17:49.130Z,26.24
2022-11-29T06:18:19.137Z,26.26
2022-11-29T06:18:49.173Z,26.24
2022-11-29T06:19:19.219Z,26.27
2022-11-29T06:19:49.250Z,26.26
2022-11-29T06:20:19.283Z,26.24
2022-11-29T06:20:49.320Z,26.24
2022-11-29T06:21:19.355Z,26.23
2022-11-29T06:21:49.390Z,26.26
2022-11-29T06:22:19.432Z,26.24
2022-11-29T06:22:49.465Z,26.26
2022-11-29T06:23:19.501Z,26.24
2022-11-29T06:23:49.533Z,26.27
2022-11-29T06:24:25.505Z,26.26
2022-11-29T06:24:49.635Z,26.24
2022-11-29T06:25:19.665Z,26.24
2022-11-29T06:25:49.693Z,26.23
2022-11-29T06:26:19.730Z,26.24
2022-11-29T06:26:49.771Z,26.26